createdAt,value
2018-12-31T00:01:00.692Z,2.80
2018-12-31T00:03:26.815Z,2.90
2018-12-31T00:05:53.444Z,2.80
2018-12-31T00:08:19.667Z,2.80
2018-12-31T00:10:45.756Z,2.80
2018-12-31T00:13:11.824Z,2.80
2018-12-31T00:15:37.933Z,2.90
2018-12-31T00:18:04.003Z,2.80
2018-12-31T00:20:30.096Z,2.70
2018-12-31T00:22:56.258Z,2.70
2018-12-31T00:25:22.332Z,2.70
2018-12-31T00:27:48.437Z,2.60
2018-12-31T00:30:14.503Z,2.80
2018-12-31T00:32:40.622Z,2.80
2018-12-31T00:35:06.688Z,2.90
2018-12-31T00:37:32.769Z,2.80
2018-12-31T00:39:58.860Z,2.80
2018-12-31T00:42:24.923Z,2.70
2018-12-31T00:44:51.007Z,2.80
2018-12-31T00:47:17.075Z,2.80
2018-12-31T00:49:43.199Z,2.70
2018-12-31T00:52:09.272Z,2.90
2018-12-31T00:54:35.346Z,2.90
2018-12-31T00:57:01.468Z,2.90
2018-12-31T00:59:27.611Z,3.00
2018-12-31T01:01:53.695Z,2.80
2018-12-31T01:04:19.759Z,2.90
2018-12-31T01:06:45.835Z,2.90
2018-12-31T01:09:12.023Z,2.90
2018-12-31T01:11:38.124Z,3.00
2018-12-31T01:14:04.316Z,3.00
2018-12-31T01:16:31.310Z,2.90
2018-12-31T01:18:57.395Z,2.90
2018-12-31T01:21:23.482Z,3.00
2018-12-31T01:23:49.544Z,2.90
2018-12-31T01:26:15.628Z,2.80
2018-12-31T01:28:41.700Z,2.80
2018-12-31T01:31:07.812Z,2.80
2018-12-31T01:33:33.952Z,2.80
2018-12-31T01:36:00.119Z,2.90
2018-12-31T01:38:26.187Z,2.90
2018-12-31T01:40:52.275Z,2.90
2018-12-31T01:43:18.352Z,2.90
2018-12-31T01:45:44.442Z,2.80
2018-12-31T01:48:10.512Z,2.80
2018-12-31T01:50:36.575Z,2.80
2018-12-31T01:53:02.655Z,2.90
2018-12-31T01:55:28.728Z,2.90
2018-12-31T01:57:54.831Z,2.90
2018-12-31T02:00:20.900Z,3.00
2018-12-31T02:02:46.983Z,4.00
2018-12-31T02:05:13.084Z,2.80
2018-12-31T02:07:39.167Z,2.80
2018-12-31T02:10:05.648Z,2.80
2018-12-31T02:12:31.738Z,2.80
2018-12-31T02:14:57.815Z,2.90
2018-12-31T02:17:24.091Z,2.80
2018-12-31T02:19:50.282Z,2.80
2018-12-31T02:22:16.359Z,2.90
2018-12-31T02:24:42.435Z,2.90
2018-12-31T02:27:08.521Z,2.90
2018-12-31T02:29:34.601Z,3.00
2018-12-31T02:32:00.691Z,3.00
2018-12-31T02:34:26.785Z,3.00
2018-12-31T02:36:52.868Z,3.00
2018-12-31T02:39:18.952Z,2.90
2018-12-31T02:41:45.021Z,2.90
2018-12-31T02:44:11.147Z,2.90
2018-12-31T02:46:37.323Z,2.90
2018-12-31T02:49:03.413Z,2.90
2018-12-31T02:51:29.486Z,3.00
2018-12-31T02:53:55.602Z,2.90
2018-12-31T02:56:21.739Z,2.90
2018-12-31T02:58:47.831Z,3.00
2018-12-31T03:01:13.899Z,3.10
2018-12-31T03:03:40.015Z,3.00
2018-12-31T03:06:06.146Z,3.00
2018-12-31T03:08:32.315Z,2.90
2018-12-31T03:10:58.391Z,2.90
2018-12-31T03:13:24.470Z,3.00
2018-12-31T03:15:50.544Z,2.80
2018-12-31T03:18:16.627Z,2.80
2018-12-31T03:20:42.748Z,2.90
2018-12-31T03:23:08.836Z,2.90
2018-12-31T03:25:34.972Z,2.90
2018-12-31T03:28:01.118Z,2.90
2018-12-31T03:30:27.491Z,2.90
2018-12-31T03:32:53.774Z,2.90
2018-12-31T03:35:19.864Z,3.00
2018-12-31T03:37:45.927Z,2.80
2018-12-31T03:40:12.325Z,2.80
2018-12-31T03:42:38.392Z,2.90
2018-12-31T03:45:05.282Z,2.90
2018-12-31T03:47:31.369Z,2.90
2018-12-31T03:49:57.543Z,2.80
2018-12-31T03:52:23.610Z,2.90
2018-12-31T03:54:49.701Z,2.90
2018-12-31T03:57:15.771Z,2.80
2018-12-31T03:59:41.858Z,2.80
2018-12-31T04:02:07.968Z,2.80
2018-12-31T04:04:34.069Z,2.80
2018-12-31T04:07:00.163Z,2.80
2018-12-31T04:09:26.260Z,2.70
2018-12-31T04:11:52.330Z,2.80
2018-12-31T04:14:18.519Z,2.70
2018-12-31T04:16:44.666Z,2.70
2018-12-31T04:19:10.913Z,2.80
2018-12-31T04:21:36.984Z,2.80
2018-12-31T04:24:03.064Z,2.70
2018-12-31T04:26:29.137Z,2.80
2018-12-31T04:28:55.212Z,2.70
2018-12-31T04:31:21.292Z,2.60
2018-12-31T04:33:47.380Z,2.60
2018-12-31T04:36:13.442Z,2.60
2018-12-31T04:38:39.516Z,2.60
2018-12-31T04:41:05.607Z,2.60
2018-12-31T04:43:31.784Z,2.70
2018-12-31T04:45:57.876Z,2.70
2018-12-31T04:48:24.031Z,2.70
2018-12-31T04:50:50.116Z,2.70
2018-12-31T04:53:16.175Z,2.60
2018-12-31T04:55:44.558Z,2.70
2018-12-31T04:58:10.328Z,2.70
2018-12-31T05:00:36.417Z,2.60
2018-12-31T05:03:02.581Z,2.70
2018-12-31T05:05:28.698Z,2.70
2018-12-31T05:07:54.851Z,2.70
2018-12-31T05:10:20.931Z,2.70
2018-12-31T05:12:46.999Z,2.60
2018-12-31T05:15:13.098Z,2.60
2018-12-31T05:17:39.264Z,2.60
2018-12-31T05:20:05.341Z,2.60
2018-12-31T05:22:31.411Z,4.20
2018-12-31T05:24:57.631Z,2.80
2018-12-31T05:27:23.700Z,2.80
2018-12-31T05:29:49.800Z,2.80
2018-12-31T05:32:15.886Z,2.70
2018-12-31T05:34:42.060Z,2.80
2018-12-31T05:37:08.138Z,2.70
2018-12-31T05:39:34.230Z,2.60
2018-12-31T05:42:00.279Z,2.50
2018-12-31T05:44:26.356Z,2.60
2018-12-31T05:46:52.431Z,2.70
2018-12-31T05:49:18.544Z,2.70
2018-12-31T05:51:44.627Z,2.80
2018-12-31T05:54:10.706Z,2.70
2018-12-31T05:56:36.787Z,2.60
2018-12-31T05:59:02.855Z,2.60
2018-12-31T06:01:28.941Z,2.60
2018-12-31T06:03:55.027Z,2.70
2018-12-31T06:06:21.147Z,2.70
2018-12-31T06:08:47.222Z,2.70
2018-12-31T06:11:13.304Z,2.60
2018-12-31T06:13:39.371Z,2.60
2018-12-31T06:16:05.461Z,2.60
2018-12-31T06:18:31.524Z,2.50
2018-12-31T06:20:57.607Z,2.50
2018-12-31T06:23:23.710Z,2.50
2018-12-31T06:25:49.836Z,2.60
2018-12-31T06:28:15.916Z,2.60
2018-12-31T06:30:42.019Z,2.60
2018-12-31T06:33:08.195Z,2.40
2018-12-31T06:35:34.280Z,2.40
2018-12-31T06:38:00.383Z,2.50
2018-12-31T06:40:28.503Z,2.50
2018-12-31T06:42:54.531Z,2.50
2018-12-31T06:45:20.604Z,2.60
2018-12-31T06:47:46.678Z,2.60
2018-12-31T06:50:12.756Z,2.60
2018-12-31T06:52:38.844Z,2.50
2018-12-31T06:55:05.019Z,2.50
2018-12-31T06:57:31.115Z,2.40
2018-12-31T06:59:57.332Z,2.30
2018-12-31T07:02:23.510Z,2.30
2018-12-31T07:04:49.648Z,2.30
2018-12-31T07:07:15.736Z,2.30
2018-12-31T07:09:41.794Z,2.20
2018-12-31T07:12:07.875Z,2.20
2018-12-31T07:14:33.939Z,2.30
2018-12-31T07:17:00.023Z,2.40
2018-12-31T07:19:26.092Z,2.50
2018-12-31T07:21:52.199Z,2.50
2018-12-31T07:24:18.272Z,2.50
2018-12-31T07:26:44.337Z,2.50
2018-12-31T07:29:10.424Z,2.40
2018-12-31T07:31:36.504Z,2.30
2018-12-31T07:34:02.651Z,2.40
2018-12-31T07:36:28.807Z,2.50
2018-12-31T07:38:54.887Z,2.50
2018-12-31T07:41:20.955Z,2.50
2018-12-31T07:43:47.036Z,2.50
2018-12-31T07:46:13.104Z,2.50
2018-12-31T07:48:39.194Z,2.50
2018-12-31T07:51:05.268Z,2.40
2018-12-31T07:53:31.340Z,2.40
2018-12-31T07:55:57.419Z,2.40
2018-12-31T07:58:23.491Z,2.30
2018-12-31T08:00:49.571Z,2.30
2018-12-31T08:03:15.640Z,2.30
2018-12-31T08:05:41.715Z,2.30
2018-12-31T08:08:07.799Z,2.20
2018-12-31T08:10:33.883Z,2.20
2018-12-31T08:12:59.962Z,2.20
2018-12-31T08:15:26.139Z,2.20
2018-12-31T08:17:52.216Z,2.20
2018-12-31T08:20:18.311Z,2.20
2018-12-31T08:22:44.375Z,2.20
2018-12-31T08:25:10.454Z,2.30
2018-12-31T08:27:36.631Z,2.30
2018-12-31T08:30:04.020Z,2.20
2018-12-31T08:32:30.107Z,2.10
2018-12-31T08:34:56.284Z,2.20
2018-12-31T08:37:22.368Z,2.20
2018-12-31T08:39:48.458Z,2.20
2018-12-31T08:42:14.572Z,2.20
2018-12-31T08:44:40.926Z,2.20
2018-12-31T08:47:07.216Z,2.20
2018-12-31T08:49:33.310Z,2.10
2018-12-31T08:51:59.476Z,2.20
2018-12-31T08:54:25.564Z,2.20
2018-12-31T08:56:51.639Z,2.20
2018-12-31T08:59:17.723Z,2.30
2018-12-31T09:01:43.791Z,2.20
2018-12-31T09:04:09.871Z,2.30
2018-12-31T09:06:35.959Z,2.20
2018-12-31T09:09:04.571Z,2.20
2018-12-31T09:11:30.639Z,2.20
2018-12-31T09:13:56.703Z,2.10
2018-12-31T09:16:22.790Z,2.10
2018-12-31T09:18:48.847Z,2.10
2018-12-31T09:21:14.943Z,2.20
2018-12-31T09:23:41.015Z,2.20
2018-12-31T09:26:07.118Z,2.20
2018-12-31T09:28:33.184Z,2.20
2018-12-31T09:30:59.296Z,2.20
2018-12-31T09:33:25.364Z,2.20
2018-12-31T09:35:51.449Z,2.10
2018-12-31T09:38:17.516Z,2.20
2018-12-31T09:40:43.620Z,2.20
2018-12-31T09:43:09.756Z,2.20
2018-12-31T09:45:35.942Z,2.10
2018-12-31T09:48:02.060Z,2.10
2018-12-31T09:50:28.162Z,2.10
2018-12-31T09:52:54.231Z,2.00
2018-12-31T09:55:20.330Z,2.00
2018-12-31T09:57:46.400Z,2.00
2018-12-31T10:00:12.468Z,2.10
2018-12-31T10:02:38.564Z,2.30
2018-12-31T10:05:04.647Z,2.30
2018-12-31T10:07:30.728Z,2.30
2018-12-31T10:09:56.815Z,2.10
2018-12-31T10:12:22.911Z,2.30
2018-12-31T10:14:49.071Z,2.30
2018-12-31T10:17:15.151Z,2.20
2018-12-31T10:19:41.219Z,2.20
2018-12-31T10:22:07.303Z,2.30
2018-12-31T10:24:33.372Z,2.30
2018-12-31T10:26:59.467Z,2.40
2018-12-31T10:29:25.532Z,2.40
2018-12-31T10:31:51.615Z,2.40
2018-12-31T10:34:17.703Z,2.50
2018-12-31T10:36:43.767Z,2.60
2018-12-31T10:39:09.860Z,2.60
2018-12-31T10:41:35.928Z,2.60
2018-12-31T10:44:01.996Z,2.60
2018-12-31T10:46:28.176Z,2.60
2018-12-31T10:48:54.239Z,2.70
2018-12-31T10:51:20.318Z,2.80
2018-12-31T10:53:46.416Z,2.90
2018-12-31T10:56:12.475Z,2.80
2018-12-31T10:58:38.544Z,2.80
2018-12-31T11:01:04.635Z,2.80
2018-12-31T11:03:30.703Z,2.80
2018-12-31T11:05:57.009Z,2.90
2018-12-31T11:08:23.063Z,3.00
2018-12-31T11:10:49.127Z,3.00
2018-12-31T11:13:15.216Z,2.90
2018-12-31T11:15:41.292Z,3.00
2018-12-31T11:18:07.352Z,3.00
2018-12-31T11:20:33.410Z,3.10
2018-12-31T11:22:59.485Z,3.30
2018-12-31T11:25:25.562Z,3.30
2018-12-31T11:27:51.627Z,3.30
2018-12-31T11:30:17.852Z,3.40
2018-12-31T11:32:43.947Z,3.40
2018-12-31T11:35:10.052Z,3.50
2018-12-31T11:37:36.110Z,3.40
2018-12-31T11:40:02.196Z,3.50
2018-12-31T11:42:28.258Z,3.40
2018-12-31T11:44:54.335Z,3.50
2018-12-31T11:47:20.409Z,3.60
2018-12-31T11:49:46.471Z,3.60
2018-12-31T11:52:12.555Z,3.60
2018-12-31T11:54:39.415Z,3.50
2018-12-31T11:57:05.618Z,3.50
2018-12-31T11:59:31.689Z,3.60
2018-12-31T12:01:57.772Z,3.60
2018-12-31T12:04:23.840Z,3.60
2018-12-31T12:06:49.930Z,3.60
2018-12-31T12:09:16.115Z,3.60
2018-12-31T12:11:42.204Z,3.60
2018-12-31T12:14:08.273Z,3.70
2018-12-31T12:16:34.372Z,3.60
2018-12-31T12:19:00.444Z,3.70
2018-12-31T12:21:27.535Z,3.80
2018-12-31T12:23:53.727Z,3.90
2018-12-31T12:26:19.874Z,3.80
2018-12-31T12:28:46.036Z,3.80
2018-12-31T12:31:12.831Z,3.70
2018-12-31T12:33:38.928Z,3.70
2018-12-31T12:36:05.117Z,3.80
2018-12-31T12:38:31.296Z,3.80
2018-12-31T12:40:57.463Z,3.90
2018-12-31T12:43:23.573Z,3.90
2018-12-31T12:45:49.748Z,3.80
2018-12-31T12:48:15.844Z,3.90
2018-12-31T12:50:42.217Z,3.90
2018-12-31T12:53:08.375Z,4.00
2018-12-31T12:55:34.559Z,4.00
2018-12-31T12:58:00.672Z,3.90
2018-12-31T13:00:26.840Z,4.10
2018-12-31T13:02:52.919Z,4.00
2018-12-31T13:05:19.395Z,4.00
2018-12-31T13:07:46.897Z,4.10
2018-12-31T13:10:13.275Z,4.00
2018-12-31T13:12:39.368Z,4.10
2018-12-31T13:15:05.745Z,4.20
2018-12-31T13:17:31.859Z,4.10
2018-12-31T13:19:58.427Z,4.10
2018-12-31T13:22:24.611Z,4.20
2018-12-31T13:24:50.679Z,4.20
2018-12-31T13:27:16.759Z,4.20
2018-12-31T13:29:42.843Z,4.30
2018-12-31T13:32:08.942Z,4.30
2018-12-31T13:34:35.124Z,4.20
2018-12-31T13:37:01.307Z,4.40
2018-12-31T13:39:27.479Z,4.30
2018-12-31T13:41:53.580Z,4.40
2018-12-31T13:44:19.655Z,4.50
2018-12-31T13:46:45.831Z,4.40
2018-12-31T13:49:11.912Z,4.40
2018-12-31T13:51:39.503Z,4.20
2018-12-31T13:54:05.598Z,4.30
2018-12-31T13:56:31.765Z,4.30
2018-12-31T13:58:57.963Z,4.30
2018-12-31T14:01:24.107Z,4.20
2018-12-31T14:03:50.208Z,4.20
2018-12-31T14:06:16.778Z,4.20
2018-12-31T14:08:42.991Z,4.20
2018-12-31T14:11:09.091Z,4.20
2018-12-31T14:13:35.280Z,4.30
2018-12-31T14:16:01.551Z,4.30
2018-12-31T14:18:27.769Z,4.40
2018-12-31T14:20:54.245Z,4.40
2018-12-31T14:23:40.318Z,4.30
2018-12-31T14:26:06.405Z,3.20
2018-12-31T14:28:32.565Z,4.20
2018-12-31T14:30:58.641Z,4.30
2018-12-31T14:33:24.726Z,4.40
2018-12-31T14:35:50.942Z,4.50
2018-12-31T14:38:17.117Z,4.50
2018-12-31T14:40:43.216Z,4.40
2018-12-31T14:43:09.372Z,4.40
2018-12-31T14:45:35.456Z,4.40
2018-12-31T14:48:01.527Z,4.30
2018-12-31T14:50:27.709Z,4.30
2018-12-31T14:52:53.795Z,4.20
2018-12-31T14:55:20.332Z,4.20
2018-12-31T14:57:46.407Z,4.40
2018-12-31T15:00:12.718Z,4.40
2018-12-31T15:02:39.253Z,4.30
2018-12-31T15:05:05.533Z,4.20
2018-12-31T15:07:31.625Z,4.20
2018-12-31T15:09:57.783Z,4.20
2018-12-31T15:12:23.863Z,4.20
2018-12-31T15:14:50.042Z,4.20
2018-12-31T15:17:16.530Z,4.30
2018-12-31T15:19:42.633Z,4.30
2018-12-31T15:22:08.797Z,4.20
2018-12-31T15:24:34.908Z,4.30
2018-12-31T15:27:01.012Z,4.30
2018-12-31T15:29:27.199Z,4.30
2018-12-31T15:31:53.407Z,4.30
2018-12-31T15:34:19.576Z,4.30
2018-12-31T15:36:45.675Z,4.40
2018-12-31T15:39:11.847Z,4.30
2018-12-31T15:41:37.956Z,4.40
2018-12-31T15:44:04.024Z,4.30
2018-12-31T15:46:30.103Z,4.30
2018-12-31T15:48:56.683Z,4.30
2018-12-31T15:51:22.779Z,4.30
2018-12-31T15:53:48.871Z,4.40
2018-12-31T15:56:14.955Z,4.50
2018-12-31T15:58:41.019Z,4.50
2018-12-31T16:01:07.119Z,4.40
2018-12-31T16:03:33.193Z,4.40
2018-12-31T16:06:19.143Z,4.40
2018-12-31T16:08:45.335Z,3.90
2018-12-31T16:11:11.423Z,4.60
2018-12-31T16:13:37.587Z,4.50
2018-12-31T16:16:05.572Z,4.40
2018-12-31T16:18:31.665Z,4.40
2018-12-31T16:20:57.839Z,4.40
2018-12-31T16:23:24.910Z,4.40
2018-12-31T16:25:51.218Z,4.40
2018-12-31T16:28:17.308Z,4.30
2018-12-31T16:30:43.772Z,4.40
2018-12-31T16:33:09.872Z,4.40
2018-12-31T16:35:35.963Z,4.40
2018-12-31T16:38:02.132Z,4.50
2018-12-31T16:40:28.263Z,4.50
2018-12-31T16:42:54.395Z,4.40
2018-12-31T16:45:20.564Z,4.50
2018-12-31T16:47:46.729Z,4.50
2018-12-31T16:50:12.909Z,4.50
2018-12-31T16:52:39.071Z,4.50
2018-12-31T16:55:05.171Z,4.60
2018-12-31T16:57:31.235Z,4.50
2018-12-31T16:59:57.298Z,4.50
2018-12-31T17:02:23.887Z,4.50
2018-12-31T17:04:49.960Z,4.60
2018-12-31T17:07:16.043Z,4.60
2018-12-31T17:09:42.143Z,4.50
2018-12-31T17:12:08.235Z,4.70
2018-12-31T17:14:34.412Z,4.50
2018-12-31T17:17:01.662Z,4.50
2018-12-31T17:19:27.943Z,4.60
2018-12-31T17:21:54.124Z,4.50
2018-12-31T17:24:20.308Z,4.50
2018-12-31T17:26:49.723Z,4.50
2018-12-31T17:29:16.026Z,4.60
2018-12-31T17:31:42.238Z,4.70
2018-12-31T17:34:08.507Z,4.80
2018-12-31T17:36:34.585Z,4.80
2018-12-31T17:39:00.678Z,4.80
2018-12-31T17:41:26.839Z,4.80
2018-12-31T17:43:53.335Z,4.70
2018-12-31T17:46:19.420Z,4.80
2018-12-31T17:48:45.591Z,4.70
2018-12-31T17:51:11.666Z,4.70
2018-12-31T17:53:37.736Z,4.80
2018-12-31T17:56:03.940Z,4.90
2018-12-31T17:58:30.110Z,4.90
2018-12-31T18:00:56.285Z,4.80
2018-12-31T18:03:22.383Z,4.80
2018-12-31T18:05:48.848Z,4.90
2018-12-31T18:08:14.960Z,4.90
2018-12-31T18:10:41.024Z,5.00
2018-12-31T18:13:07.213Z,4.90
2018-12-31T18:15:33.375Z,4.90
2018-12-31T18:17:59.475Z,4.90
2018-12-31T18:20:25.956Z,4.90
2018-12-31T18:22:52.021Z,5.00
2018-12-31T18:25:18.218Z,5.00
2018-12-31T18:27:44.284Z,5.00
2018-12-31T18:30:10.383Z,4.90
2018-12-31T18:32:36.535Z,4.90
2018-12-31T18:35:03.131Z,4.90
2018-12-31T18:37:29.191Z,4.90
2018-12-31T18:39:57.989Z,5.00
2018-12-31T18:42:23.255Z,4.80
2018-12-31T18:44:49.343Z,4.80
2018-12-31T18:47:15.421Z,4.80
2018-12-31T18:49:41.499Z,4.80
2018-12-31T18:52:07.990Z,4.90
2018-12-31T18:54:34.153Z,4.80
2018-12-31T18:57:00.213Z,4.80
2018-12-31T18:59:26.299Z,4.90
2018-12-31T19:01:52.366Z,4.90
2018-12-31T19:04:18.460Z,4.90
2018-12-31T19:06:44.631Z,4.90
2018-12-31T19:09:10.739Z,4.90
2018-12-31T19:11:36.826Z,4.90
2018-12-31T19:14:04.014Z,4.90
2018-12-31T19:16:30.700Z,4.90
2018-12-31T19:18:56.864Z,5.00
2018-12-31T19:21:23.044Z,4.90
2018-12-31T19:23:49.627Z,4.90
2018-12-31T19:26:15.726Z,4.90
2018-12-31T19:28:41.991Z,4.90
2018-12-31T19:31:08.079Z,5.00
2018-12-31T19:33:34.176Z,5.00
2018-12-31T19:36:00.251Z,5.10
2018-12-31T19:38:26.439Z,5.10
2018-12-31T19:40:52.515Z,4.90
2018-12-31T19:43:18.639Z,4.90
2018-12-31T19:45:45.008Z,4.90
2018-12-31T19:48:11.076Z,4.90
2018-12-31T19:50:37.255Z,5.00
2018-12-31T19:53:03.435Z,5.00
2018-12-31T19:55:29.819Z,5.00
2018-12-31T19:57:55.889Z,5.00
2018-12-31T20:00:22.079Z,5.00
2018-12-31T20:02:48.148Z,4.90
2018-12-31T20:05:14.243Z,4.80
2018-12-31T20:07:40.419Z,4.90
2018-12-31T20:10:06.727Z,4.90
2018-12-31T20:12:32.808Z,4.90
2018-12-31T20:14:58.995Z,4.90
2018-12-31T20:17:25.093Z,5.10
2018-12-31T20:19:51.259Z,5.00
2018-12-31T20:22:17.331Z,5.00
2018-12-31T20:24:43.512Z,5.00
2018-12-31T20:27:09.687Z,5.10
2018-12-31T20:29:35.763Z,5.10
2018-12-31T20:32:01.933Z,4.90
2018-12-31T20:34:28.120Z,5.00
2018-12-31T20:36:54.287Z,5.00
2018-12-31T20:39:20.467Z,4.90
2018-12-31T20:41:46.646Z,4.90
2018-12-31T20:44:12.711Z,4.90
2018-12-31T20:46:38.996Z,4.90
2018-12-31T20:49:05.166Z,4.90
2018-12-31T20:51:31.343Z,4.90
2018-12-31T20:53:57.418Z,4.90
2018-12-31T20:56:23.512Z,5.00
2018-12-31T20:59:09.477Z,5.00
2018-12-31T21:01:35.639Z,5.10
2018-12-31T21:04:01.792Z,5.00
2018-12-31T21:06:27.868Z,5.00
2018-12-31T21:08:53.952Z,5.00
2018-12-31T21:11:20.122Z,5.00
2018-12-31T21:13:46.308Z,5.00
2018-12-31T21:16:12.480Z,5.00
2018-12-31T21:18:38.575Z,5.10
2018-12-31T21:21:04.639Z,5.10
2018-12-31T21:23:30.707Z,5.00
2018-12-31T21:25:58.542Z,5.00
2018-12-31T21:28:24.775Z,5.00
2018-12-31T21:30:51.181Z,5.10
2018-12-31T21:33:18.165Z,5.10
2018-12-31T21:35:44.341Z,5.10
2018-12-31T21:38:10.536Z,5.20
2018-12-31T21:40:36.604Z,5.20
2018-12-31T21:43:02.671Z,5.20
2018-12-31T21:45:28.887Z,5.20
2018-12-31T21:47:55.312Z,5.20
2018-12-31T21:50:21.499Z,5.20
2018-12-31T21:52:47.856Z,5.20
2018-12-31T21:55:14.039Z,5.20
2018-12-31T21:57:40.229Z,5.10
2018-12-31T22:00:07.703Z,5.00
2018-12-31T22:02:34.212Z,4.90
2018-12-31T22:05:00.282Z,4.90
2018-12-31T22:07:26.464Z,4.80
2018-12-31T22:09:52.548Z,4.90
2018-12-31T22:12:18.607Z,4.90
2018-12-31T22:14:44.892Z,4.90
2018-12-31T22:17:10.951Z,5.00
2018-12-31T22:19:37.539Z,4.90
2018-12-31T22:22:03.708Z,4.90
2018-12-31T22:24:29.775Z,5.00
2018-12-31T22:26:55.956Z,5.00
2018-12-31T22:29:22.027Z,4.90
2018-12-31T22:31:48.232Z,4.80
2018-12-31T22:34:14.406Z,4.80
2018-12-31T22:36:40.585Z,4.80
2018-12-31T22:39:06.764Z,4.80
2018-12-31T22:41:32.827Z,4.80
2018-12-31T22:43:59.020Z,4.80
2018-12-31T22:46:25.091Z,4.80
2018-12-31T22:48:51.253Z,3.60
2018-12-31T22:51:17.744Z,4.70
2018-12-31T22:53:43.803Z,4.70
2018-12-31T22:56:09.919Z,4.70
2018-12-31T22:58:35.987Z,4.70
2018-12-31T23:01:03.027Z,4.60
2018-12-31T23:03:29.187Z,4.60
2018-12-31T23:05:55.264Z,4.50
2018-12-31T23:08:21.582Z,4.40
2018-12-31T23:10:47.744Z,4.40
2018-12-31T23:13:13.836Z,4.40
2018-12-31T23:15:39.928Z,4.40
2018-12-31T23:18:06.108Z,4.40
2018-12-31T23:20:32.285Z,4.40
2018-12-31T23:22:58.752Z,4.40
2018-12-31T23:25:24.858Z,4.40
2018-12-31T23:27:50.923Z,4.40
2018-12-31T23:30:17.012Z,4.40
2018-12-31T23:32:43.204Z,4.50
2018-12-31T23:35:09.267Z,4.50
2018-12-31T23:37:55.240Z,4.50
2018-12-31T23:40:21.441Z,4.50
2018-12-31T23:42:47.515Z,4.50
2018-12-31T23:45:13.707Z,4.50
2018-12-31T23:47:39.896Z,4.50
2018-12-31T23:50:26.376Z,4.40
2018-12-31T23:52:52.456Z,4.20
2018-12-31T23:55:18.552Z,4.40
2018-12-31T23:57:44.734Z,4.50
